createdAt,value
2022-11-14T00:01:24.245Z,50.80
2022-11-14T00:03:52.045Z,49.87
2022-11-14T00:06:19.809Z,46.53
2022-11-14T00:08:48.676Z,41.57
2022-11-14T00:11:16.213Z,48.43
2022-11-14T00:13:43.755Z,49.47
2022-11-14T00:16:11.306Z,50.27
2022-11-14T00:18:38.813Z,54.87
2022-11-14T00:21:06.462Z,47.20
2022-11-14T00:23:34.011Z,48.77
2022-11-14T00:26:02.878Z,52.13
2022-11-14T00:28:30.745Z,42.10
2022-11-14T00:30:58.433Z,43.27
2022-11-14T00:33:26.019Z,42.30
2022-11-14T00:35:54.849Z,45.50
2022-11-14T00:38:23.057Z,49.43
2022-11-14T00:40:50.806Z,42.50
2022-11-14T00:43:19.906Z,50.60
2022-11-14T00:45:48.549Z,56.33
2022-11-14T00:48:16.541Z,52.07
2022-11-14T00:50:44.679Z,46.03
2022-11-14T00:53:12.343Z,40.53
2022-11-14T00:55:40.164Z,39.63
2022-11-14T00:58:07.704Z,35.03
2022-11-14T01:00:37.030Z,35.27
2022-11-14T01:03:05.033Z,34.57
2022-11-14T01:05:32.559Z,36.13
2022-11-14T01:08:00.123Z,35.07
2022-11-14T01:10:27.731Z,35.57
2022-11-14T01:12:55.296Z,35.70
2022-11-14T01:15:22.848Z,36.73
2022-11-14T01:17:51.721Z,36.20
2022-11-14T01:20:19.436Z,34.87
2022-11-14T01:22:46.958Z,36.70
2022-11-14T01:25:14.522Z,37.40
2022-11-14T01:27:42.052Z,44.77
2022-11-14T01:30:10.171Z,50.30
2022-11-14T01:32:37.743Z,50.80
2022-11-14T01:35:07.109Z,50.10
2022-11-14T01:37:34.635Z,45.63
2022-11-14T01:40:02.155Z,51.20
2022-11-14T01:42:29.678Z,44.20
2022-11-14T01:44:57.193Z,42.93
2022-11-14T01:47:29.975Z,39.80
2022-11-14T01:50:00.532Z,47.83
2022-11-14T01:52:34.364Z,52.90
2022-11-14T01:55:04.066Z,57.17
2022-11-14T01:57:36.386Z,60.20
2022-11-14T02:00:15.902Z,62.13
2022-11-14T02:02:44.807Z,61.27
2022-11-14T02:05:15.550Z,59.43
2022-11-14T02:07:44.416Z,65.67
2022-11-14T02:10:18.223Z,58.07
2022-11-14T02:12:47.163Z,62.27
2022-11-14T02:15:15.725Z,55.53
2022-11-14T02:17:44.914Z,52.23
2022-11-14T02:20:20.182Z,50.67
2022-11-14T02:22:47.722Z,50.50
2022-11-14T02:25:18.942Z,52.10
2022-11-14T02:27:46.494Z,50.80
2022-11-14T02:30:17.851Z,50.83
2022-11-14T02:33:09.615Z,54.93
2022-11-14T02:35:34.528Z,63.27
2022-11-14T02:38:02.058Z,60.70
2022-11-14T02:40:29.589Z,75.07
2022-11-14T02:42:57.110Z,59.73
2022-11-14T02:45:25.002Z,56.83
2022-11-14T02:47:52.518Z,52.57
2022-11-14T02:50:20.107Z,56.50
2022-11-14T02:52:49.142Z,53.20
2022-11-14T02:55:16.904Z,55.53
2022-11-14T02:57:44.416Z,56.40
2022-11-14T03:00:15.088Z,63.53
2022-11-14T03:02:42.982Z,53.83
2022-11-14T03:05:10.744Z,39.03
2022-11-14T03:07:38.335Z,36.67
2022-11-14T03:10:09.522Z,34.73
2022-11-14T03:12:37.184Z,36.27
2022-11-14T03:15:05.906Z,38.57
2022-11-14T03:17:33.834Z,36.60
2022-11-14T03:20:01.596Z,37.67
2022-11-14T03:22:29.299Z,39.13
2022-11-14T03:24:56.815Z,39.43
2022-11-14T03:27:25.686Z,38.23
2022-11-14T03:29:53.186Z,34.73
2022-11-14T03:32:20.741Z,38.33
2022-11-14T03:34:48.260Z,39.67
2022-11-14T03:37:15.866Z,42.10
2022-11-14T03:39:43.398Z,40.03
2022-11-14T03:42:10.927Z,38.67
2022-11-14T03:44:40.055Z,37.37
2022-11-14T03:47:07.585Z,38.70
2022-11-14T03:49:35.135Z,45.60
2022-11-14T03:52:02.668Z,50.80
2022-11-14T03:54:30.222Z,47.43
2022-11-14T03:56:57.768Z,55.23
2022-11-14T03:59:25.297Z,49.17
2022-11-14T04:01:54.183Z,50.43
2022-11-14T04:04:21.694Z,52.87
2022-11-14T04:06:49.308Z,46.60
2022-11-14T04:09:16.976Z,45.70
2022-11-14T04:11:44.713Z,47.87
2022-11-14T04:14:12.322Z,47.83
2022-11-14T04:16:39.831Z,51.77
2022-11-14T04:19:08.753Z,46.07
2022-11-14T04:21:36.260Z,38.07
2022-11-14T04:24:08.414Z,33.63
2022-11-14T04:26:38.408Z,30.07
2022-11-14T04:29:05.915Z,29.80
2022-11-14T04:31:33.430Z,31.53
2022-11-14T04:34:01.002Z,31.47
2022-11-14T04:36:29.856Z,32.90
2022-11-14T04:38:57.600Z,37.83
2022-11-14T04:41:25.127Z,69.20
2022-11-14T04:43:52.647Z,41.70
2022-11-14T04:46:20.177Z,29.40
2022-11-14T04:48:47.660Z,26.53
2022-11-14T04:51:15.182Z,24.53
2022-11-14T04:53:44.059Z,30.17
2022-11-14T04:56:11.610Z,39.60
2022-11-14T04:58:39.582Z,65.07
2022-11-14T05:01:10.414Z,53.00
2022-11-14T05:03:38.346Z,51.03
2022-11-14T05:06:06.268Z,38.30
2022-11-14T05:08:33.807Z,44.00
2022-11-14T05:11:02.781Z,25.60
2022-11-14T05:13:30.338Z,25.97
2022-11-14T05:15:59.702Z,29.43
2022-11-14T05:18:27.670Z,30.20
2022-11-14T05:20:59.196Z,25.23
2022-11-14T05:23:26.812Z,54.37
2022-11-14T05:26:02.894Z,43.23
2022-11-14T05:28:30.862Z,46.40
2022-11-14T05:31:02.661Z,41.97
2022-11-14T05:33:30.624Z,44.23
2022-11-14T05:36:02.330Z,38.67
2022-11-14T05:38:30.147Z,35.90
2022-11-14T05:40:57.736Z,36.60
2022-11-14T05:43:29.878Z,36.67
2022-11-14T05:46:00.404Z,35.47
2022-11-14T05:48:28.319Z,33.77
2022-11-14T05:50:56.507Z,33.83
2022-11-14T05:53:24.106Z,37.17
2022-11-14T05:55:51.643Z,49.73
2022-11-14T05:58:19.202Z,38.77
2022-11-14T06:00:53.936Z,38.20
2022-11-14T06:03:21.982Z,32.43
2022-11-14T06:05:49.507Z,29.20
2022-11-14T06:08:17.026Z,23.93
2022-11-14T06:10:44.533Z,23.47
2022-11-14T06:13:12.053Z,27.73
2022-11-14T06:15:39.570Z,28.90
2022-11-14T06:18:08.504Z,26.60
2022-11-14T06:20:37.512Z,34.17
2022-11-14T06:23:05.066Z,38.00
2022-11-14T06:25:32.614Z,44.77
2022-11-14T06:28:00.398Z,50.97
2022-11-14T06:30:27.919Z,54.60
2022-11-14T06:32:58.000Z,33.80
2022-11-14T06:35:26.908Z,29.27
2022-11-14T06:37:54.806Z,31.17
2022-11-14T06:40:22.342Z,41.87
2022-11-14T06:42:49.879Z,34.33
2022-11-14T06:45:17.720Z,32.67
2022-11-14T06:47:45.275Z,35.70
2022-11-14T06:50:12.782Z,31.37
2022-11-14T06:52:41.627Z,32.93
2022-11-14T06:55:09.384Z,38.77
2022-11-14T06:57:36.891Z,37.03
2022-11-14T07:00:05.175Z,44.63
2022-11-14T07:02:32.662Z,41.33
2022-11-14T07:05:00.183Z,50.07
2022-11-14T07:07:28.843Z,64.73
2022-11-14T07:09:58.771Z,58.80
2022-11-14T07:12:26.278Z,48.37
2022-11-14T07:14:53.796Z,56.33
2022-11-14T07:17:21.313Z,67.90
2022-11-14T07:19:48.838Z,69.40
2022-11-14T07:22:16.449Z,47.67
2022-11-14T07:24:43.945Z,87.77
2022-11-14T07:27:12.753Z,105.40
2022-11-14T07:29:40.259Z,93.63
2022-11-14T07:32:07.841Z,98.80
2022-11-14T07:34:35.347Z,86.80
2022-11-14T07:37:02.916Z,48.90
2022-11-14T07:39:30.451Z,62.17
2022-11-14T07:41:57.963Z,56.13
2022-11-14T07:44:26.796Z,83.13
2022-11-14T07:46:54.296Z,70.50
2022-11-14T07:49:21.786Z,41.50
2022-11-14T07:51:49.327Z,28.17
2022-11-14T07:54:16.821Z,36.43
2022-11-14T07:56:44.349Z,30.47
2022-11-14T07:59:11.930Z,25.67
2022-11-14T08:01:41.075Z,25.40
2022-11-14T08:04:08.588Z,56.43
2022-11-14T08:06:36.108Z,39.00
2022-11-14T08:09:03.662Z,31.50
2022-11-14T08:11:49.303Z,20.08
2022-11-14T08:14:17.364Z,21.92
2022-11-14T08:16:46.238Z,20.02
2022-11-14T08:19:13.806Z,23.10
2022-11-14T08:21:41.316Z,26.92
2022-11-14T08:24:09.682Z,21.45
2022-11-14T08:26:37.228Z,17.48
2022-11-14T08:29:04.761Z,11.93
2022-11-14T08:31:32.287Z,11.02
2022-11-14T08:34:01.130Z,19.15
2022-11-14T08:36:28.690Z,21.88
2022-11-14T08:39:01.611Z,12.45
2022-11-14T08:41:29.670Z,13.05
2022-11-14T08:43:57.271Z,20.75
2022-11-14T08:46:24.824Z,19.35
2022-11-14T08:48:52.319Z,18.25
2022-11-14T08:51:21.168Z,19.20
2022-11-14T08:53:48.669Z,19.98
2022-11-14T08:56:16.182Z,15.57
2022-11-14T08:58:43.680Z,14.00
2022-11-14T09:01:11.770Z,15.85
2022-11-14T09:03:39.497Z,20.00
2022-11-14T09:06:07.429Z,19.13
2022-11-14T09:08:36.285Z,17.20
2022-11-14T09:11:09.223Z,17.80
2022-11-14T09:13:37.560Z,15.38
2022-11-14T09:16:05.462Z,11.70
2022-11-14T09:18:33.356Z,12.23
2022-11-14T09:21:02.249Z,12.25
2022-11-14T09:23:30.180Z,12.40
2022-11-14T09:25:59.864Z,12.27
2022-11-14T09:28:27.413Z,13.38
2022-11-14T09:30:54.933Z,12.23
2022-11-14T09:33:22.451Z,13.63
2022-11-14T09:35:49.961Z,12.20
2022-11-14T09:38:17.474Z,11.57
2022-11-14T09:40:55.640Z,12.02
2022-11-14T09:43:39.503Z,10.63
2022-11-14T09:46:17.419Z,10.60
2022-11-14T09:48:45.029Z,10.30
2022-11-14T09:51:17.673Z,12.40
2022-11-14T09:53:53.205Z,8.68
2022-11-14T09:56:24.522Z,10.23
2022-11-14T09:58:55.505Z,11.27
2022-11-14T10:01:33.206Z,17.17
2022-11-14T10:04:11.113Z,15.75
2022-11-14T10:06:47.731Z,19.73
2022-11-14T10:09:44.998Z,17.85
2022-11-14T10:12:16.289Z,17.65
2022-11-14T10:15:12.529Z,20.95
2022-11-14T10:17:58.369Z,17.98
2022-11-14T10:20:34.007Z,17.98
2022-11-14T10:23:14.639Z,20.35
2022-11-14T10:25:55.399Z,14.25
2022-11-14T10:28:44.795Z,15.57
2022-11-14T10:31:23.921Z,18.17
2022-11-14T10:33:58.697Z,17.45
2022-11-14T10:36:41.921Z,16.38
2022-11-14T10:39:17.395Z,14.98
2022-11-14T10:42:06.158Z,13.50
2022-11-14T10:44:39.600Z,12.05
2022-11-14T10:47:13.920Z,9.80
2022-11-14T10:49:41.768Z,7.60
2022-11-14T10:52:15.930Z,7.63
2022-11-14T10:54:48.964Z,9.13
2022-11-14T10:57:18.857Z,7.57
2022-11-14T10:59:47.253Z,6.95
2022-11-14T11:02:16.830Z,7.35
2022-11-14T11:04:46.168Z,9.43
2022-11-14T11:07:41.862Z,9.68
2022-11-14T11:10:38.781Z,10.95
2022-11-14T11:13:06.694Z,10.25
2022-11-14T11:15:41.688Z,12.73
2022-11-14T11:18:26.813Z,12.57
2022-11-14T11:21:05.650Z,12.73
2022-11-14T11:23:33.535Z,12.60
2022-11-14T11:26:05.646Z,15.63
2022-11-14T11:28:34.477Z,18.27
2022-11-14T11:31:03.546Z,14.90
2022-11-14T11:33:34.433Z,16.05
2022-11-14T11:36:05.468Z,29.88
2022-11-14T11:38:34.878Z,27.80
2022-11-14T11:41:15.451Z,26.15
2022-11-14T11:43:58.175Z,18.05
2022-11-14T11:46:34.019Z,25.38
2022-11-14T11:49:12.021Z,24.52
2022-11-14T11:51:46.768Z,30.63
2022-11-14T11:54:17.409Z,32.10
2022-11-14T11:56:47.252Z,23.35
2022-11-14T11:59:26.834Z,19.65
2022-11-14T12:01:54.543Z,26.38
2022-11-14T12:04:23.451Z,26.20
2022-11-14T12:06:56.811Z,25.08
2022-11-14T12:10:03.214Z,24.80
2022-11-14T12:12:26.473Z,27.10
2022-11-14T12:15:09.009Z,29.30
2022-11-14T12:18:05.686Z,25.23
2022-11-14T12:21:09.250Z,22.95
2022-11-14T12:24:12.630Z,34.22
2022-11-14T12:27:01.688Z,36.03
2022-11-14T12:29:47.546Z,31.42
2022-11-14T12:32:20.105Z,28.30
2022-11-14T12:34:49.123Z,33.78
2022-11-14T12:37:20.009Z,36.15
2022-11-14T12:39:58.142Z,35.33
2022-11-14T12:42:27.264Z,35.95
2022-11-14T12:44:54.893Z,36.72
2022-11-14T12:47:23.918Z,35.63
2022-11-14T12:50:42.097Z,17.02
2022-11-14T12:53:42.067Z,14.57
2022-11-14T12:56:46.861Z,13.70
2022-11-14T12:59:35.899Z,9.75
2022-11-14T13:02:26.713Z,8.73
2022-11-14T13:05:24.186Z,7.68
2022-11-14T13:08:05.258Z,7.03
2022-11-14T13:10:38.399Z,7.88
2022-11-14T13:13:25.960Z,7.75
2022-11-14T13:16:14.167Z,6.78
2022-11-14T13:19:11.263Z,5.57
2022-11-14T13:21:48.092Z,4.85
2022-11-14T13:24:17.126Z,5.22
2022-11-14T13:26:46.907Z,5.57
2022-11-14T13:29:58.044Z,7.38
2022-11-14T13:33:01.939Z,6.32
2022-11-14T13:35:43.408Z,4.68
2022-11-14T13:39:03.536Z,5.53
2022-11-14T13:42:07.329Z,5.93
2022-11-14T13:45:10.048Z,6.25
2022-11-14T13:48:00.014Z,8.68
2022-11-14T13:50:32.293Z,6.72
2022-11-14T13:53:01.275Z,5.47
2022-11-14T13:55:38.942Z,7.38
2022-11-14T13:58:19.655Z,6.45
2022-11-14T14:01:07.875Z,6.85
2022-11-14T14:03:48.242Z,9.10
2022-11-14T14:06:36.641Z,9.77
2022-11-14T14:09:20.370Z,8.27
2022-11-14T14:11:59.387Z,10.40
2022-11-14T14:14:43.198Z,7.47
2022-11-14T14:17:16.138Z,6.43
2022-11-14T14:20:00.687Z,5.60
2022-11-14T14:22:36.266Z,7.28
2022-11-14T14:25:15.927Z,7.97
2022-11-14T14:27:57.454Z,7.93
2022-11-14T14:30:25.473Z,5.93
2022-11-14T14:33:12.491Z,5.05
2022-11-14T14:35:41.140Z,4.85
2022-11-14T14:38:13.606Z,6.55
2022-11-14T14:40:43.380Z,6.60
2022-11-14T14:43:23.069Z,5.80
2022-11-14T14:45:54.728Z,8.48
2022-11-14T14:48:25.833Z,10.55
2022-11-14T14:50:55.160Z,10.35
2022-11-14T14:53:24.829Z,11.63
2022-11-14T14:55:55.856Z,10.68
2022-11-14T14:58:26.958Z,11.98
2022-11-14T15:00:57.073Z,12.70
2022-11-14T15:03:26.823Z,11.32
2022-11-14T15:06:01.655Z,11.75
2022-11-14T15:08:30.987Z,11.73
2022-11-14T15:11:01.644Z,11.65
2022-11-14T15:13:32.076Z,13.63
2022-11-14T15:15:59.888Z,13.25
2022-11-14T15:18:29.826Z,16.48
2022-11-14T15:21:18.010Z,15.38
2022-11-14T15:23:45.791Z,12.98
2022-11-14T15:26:17.911Z,11.40
2022-11-14T15:28:46.217Z,11.52
2022-11-14T15:31:19.794Z,8.73
2022-11-14T15:34:00.758Z,9.73
2022-11-14T15:36:28.303Z,10.52
2022-11-14T15:39:01.278Z,11.50
2022-11-14T15:41:31.381Z,17.30
2022-11-14T15:44:02.861Z,14.47
2022-11-14T15:46:44.355Z,22.50
2022-11-14T15:49:21.470Z,18.20
2022-11-14T15:51:52.744Z,15.90
2022-11-14T15:54:25.949Z,13.53
2022-11-14T15:56:56.892Z,11.77
2022-11-14T15:59:25.257Z,12.13
2022-11-14T16:01:55.984Z,9.10
2022-11-14T16:04:29.800Z,9.73
2022-11-14T16:06:57.402Z,19.40
2022-11-14T16:09:25.059Z,35.13
2022-11-14T16:11:52.595Z,24.90
2022-11-14T16:14:21.450Z,15.47
2022-11-14T16:16:48.978Z,14.23
2022-11-14T16:19:17.870Z,16.57
2022-11-14T16:21:45.673Z,13.17
2022-11-14T16:24:17.893Z,13.40
2022-11-14T16:26:45.498Z,6.90
2022-11-14T16:29:13.038Z,7.50
2022-11-14T16:31:42.241Z,10.50
2022-11-14T16:34:14.968Z,11.57
2022-11-14T16:36:45.133Z,16.40
2022-11-14T16:39:13.594Z,17.17
2022-11-14T16:41:41.271Z,16.23
2022-11-14T16:44:14.805Z,12.77
2022-11-14T16:46:43.781Z,14.20
2022-11-14T16:49:15.046Z,13.50
2022-11-14T16:51:48.509Z,16.20
2022-11-14T16:54:17.511Z,21.73
2022-11-14T16:56:45.019Z,20.20
2022-11-14T16:59:12.826Z,18.17
2022-11-14T17:01:40.486Z,18.57
2022-11-14T17:04:09.443Z,17.13
2022-11-14T17:06:36.979Z,15.93
2022-11-14T17:09:04.748Z,17.70
2022-11-14T17:11:32.329Z,24.37
2022-11-14T17:13:59.820Z,31.70
2022-11-14T17:16:27.328Z,33.70
2022-11-14T17:18:55.473Z,25.90
2022-11-14T17:21:26.323Z,15.57
2022-11-14T17:23:57.045Z,14.17
2022-11-14T17:26:25.119Z,18.23
2022-11-14T17:28:53.064Z,17.00
2022-11-14T17:31:20.858Z,18.33
2022-11-14T17:33:52.451Z,27.43
2022-11-14T17:36:20.151Z,16.93
2022-11-14T17:38:49.027Z,28.03
2022-11-14T17:41:16.612Z,29.17
2022-11-14T17:43:44.461Z,25.20
2022-11-14T17:46:15.856Z,27.23
2022-11-14T17:48:43.724Z,29.23
2022-11-14T17:51:13.576Z,29.97
2022-11-14T17:53:44.601Z,34.13
2022-11-14T17:56:15.887Z,38.67
2022-11-14T17:58:44.279Z,31.80
2022-11-14T18:01:12.636Z,33.77
2022-11-14T18:03:40.285Z,34.47
2022-11-14T18:06:09.334Z,29.47
2022-11-14T18:08:37.395Z,30.13
2022-11-14T18:11:06.924Z,31.63
2022-11-14T18:13:36.008Z,34.37
2022-11-14T18:16:05.547Z,27.50
2022-11-14T18:18:34.285Z,24.17
2022-11-14T18:21:07.366Z,29.73
2022-11-14T18:23:36.179Z,23.03
2022-11-14T18:26:10.037Z,24.27
2022-11-14T18:28:38.910Z,33.03
2022-11-14T18:31:08.311Z,28.77
2022-11-14T18:33:36.415Z,24.97
2022-11-14T18:36:05.931Z,38.30
2022-11-14T18:38:33.962Z,29.70
2022-11-14T18:41:04.099Z,29.50
2022-11-14T18:43:33.216Z,24.40
2022-11-14T18:46:07.612Z,27.30
2022-11-14T18:48:35.765Z,23.00
2022-11-14T18:51:04.459Z,24.93
2022-11-14T18:53:33.200Z,22.27
2022-11-14T18:56:04.428Z,21.93
2022-11-14T18:58:32.046Z,31.30
2022-11-14T19:00:59.689Z,30.90
2022-11-14T19:03:29.558Z,27.70
2022-11-14T19:06:02.425Z,27.67
2022-11-14T19:08:29.998Z,30.13
2022-11-14T19:11:01.650Z,24.10
2022-11-14T19:13:29.538Z,22.03
2022-11-14T19:16:02.258Z,76.30
2022-11-14T19:18:32.495Z,68.57
2022-11-14T19:21:01.396Z,37.27
2022-11-14T19:23:29.866Z,63.40
2022-11-14T19:25:59.809Z,58.50
2022-11-14T19:28:27.707Z,40.77
2022-11-14T19:30:55.229Z,47.20
2022-11-14T19:33:22.741Z,84.30
2022-11-14T19:35:51.635Z,40.63
2022-11-14T19:38:19.170Z,32.47
2022-11-14T19:40:50.818Z,30.00
2022-11-14T19:43:18.737Z,29.63
2022-11-14T19:45:46.436Z,36.30
2022-11-14T19:48:14.045Z,30.80
2022-11-14T19:50:41.554Z,26.10
2022-11-14T19:53:10.513Z,23.43
2022-11-14T19:55:38.060Z,25.47
2022-11-14T19:58:05.563Z,28.97
2022-11-14T20:00:33.128Z,26.77
2022-11-14T20:03:00.681Z,20.17
2022-11-14T20:05:28.194Z,24.50
2022-11-14T20:07:55.716Z,44.78
2022-11-14T20:10:24.588Z,30.53
2022-11-14T20:12:52.111Z,56.67
2022-11-14T20:15:19.645Z,61.20
2022-11-14T20:17:47.150Z,82.33
2022-11-14T20:20:14.760Z,57.17
2022-11-14T20:22:42.300Z,74.00
2022-11-14T20:25:10.108Z,35.73
2022-11-14T20:27:39.074Z,27.30
2022-11-14T20:30:07.762Z,30.93
2022-11-14T20:32:35.285Z,30.17
2022-11-14T20:35:02.834Z,31.50
2022-11-14T20:37:30.372Z,28.07
2022-11-14T20:39:57.920Z,23.23
2022-11-14T20:42:25.433Z,22.90
2022-11-14T20:44:54.267Z,36.73
2022-11-14T20:47:22.534Z,19.37
2022-11-14T20:49:50.273Z,19.77
2022-11-14T20:52:18.651Z,24.80
2022-11-14T20:54:46.201Z,21.43
2022-11-14T20:57:13.840Z,19.63
2022-11-14T20:59:41.390Z,18.07
2022-11-14T21:02:12.599Z,16.73
2022-11-14T21:04:40.203Z,18.13
2022-11-14T21:07:07.864Z,20.13
2022-11-14T21:09:35.417Z,20.50
2022-11-14T21:12:02.939Z,18.83
2022-11-14T21:14:30.458Z,20.87
2022-11-14T21:16:58.200Z,22.60
2022-11-14T21:19:28.989Z,21.70
2022-11-14T21:21:56.510Z,21.97
2022-11-14T21:24:24.067Z,23.70
2022-11-14T21:26:51.663Z,25.37
2022-11-14T21:29:19.197Z,31.50
2022-11-14T21:31:47.575Z,52.10
2022-11-14T21:34:17.895Z,31.67
2022-11-14T21:36:48.094Z,23.30
2022-11-14T21:39:17.464Z,24.00
2022-11-14T21:41:48.156Z,22.57
2022-11-14T21:44:17.660Z,24.07
2022-11-14T21:46:47.012Z,18.47
2022-11-14T21:49:14.854Z,19.23
2022-11-14T21:51:42.456Z,17.40
2022-11-14T21:54:11.373Z,18.27
2022-11-14T21:56:38.957Z,16.57
2022-11-14T21:59:14.450Z,16.07
2022-11-14T22:02:01.473Z,16.23
2022-11-14T22:04:29.301Z,17.60
2022-11-14T22:06:57.056Z,17.93
2022-11-14T22:09:27.868Z,15.43
2022-11-14T22:11:55.686Z,25.80
2022-11-14T22:14:23.236Z,18.10
2022-11-14T22:16:50.746Z,15.90
2022-11-14T22:19:18.749Z,15.73
2022-11-14T22:21:46.517Z,15.30
2022-11-14T22:24:14.052Z,20.27
2022-11-14T22:26:42.928Z,22.57
2022-11-14T22:29:10.473Z,22.70
2022-11-14T22:31:38.817Z,18.00
2022-11-14T22:34:06.365Z,18.67
2022-11-14T22:36:33.976Z,16.27
2022-11-14T22:39:01.679Z,15.03
2022-11-14T22:41:33.028Z,73.90
2022-11-14T22:44:02.919Z,40.63
2022-11-14T22:46:30.677Z,22.47
2022-11-14T22:48:58.607Z,18.37
2022-11-14T22:51:27.629Z,17.70
2022-11-14T22:53:57.167Z,22.80
2022-11-14T22:56:26.858Z,30.40
2022-11-14T22:58:54.645Z,26.37
2022-11-14T23:01:25.678Z,18.53
2022-11-14T23:03:57.427Z,19.47
2022-11-14T23:06:25.943Z,18.87
2022-11-14T23:08:53.860Z,18.97
2022-11-14T23:11:23.682Z,19.33
2022-11-14T23:13:53.383Z,21.97
2022-11-14T23:16:23.918Z,19.50
2022-11-14T23:18:53.773Z,20.53
2022-11-14T23:21:23.422Z,18.70
2022-11-14T23:23:53.914Z,21.93
2022-11-14T23:26:21.971Z,20.47
2022-11-14T23:28:49.517Z,24.83
2022-11-14T23:31:19.197Z,21.90
2022-11-14T23:33:48.254Z,20.40
2022-11-14T23:36:16.519Z,22.47
2022-11-14T23:38:44.215Z,24.87
2022-11-14T23:41:17.656Z,22.43
2022-11-14T23:43:45.295Z,17.70
2022-11-14T23:46:12.883Z,17.42
2022-11-14T23:48:40.616Z,17.63
2022-11-14T23:51:10.550Z,17.30
2022-11-14T23:53:38.139Z,16.43
2022-11-14T23:56:06.223Z,17.37
2022-11-14T23:58:33.796Z,18.10
